Fort Lauderdale Executive Airport
KFXE : now visible

Airfield :











YOU CAN JOIN US ON...

 
LOGIN :

Register | Disclaimer

   EN    FR    IT 

 









Legend :    VFR   Marginal VFR   IFR   Intensive IFR   Very Intensive IFR
Visi :
Ceiling :
>= 8 km
>= 3000ft
5 to 8 km
1000 to 3000 ft
1500m to 5 km
500 to 1000 ft
800 to 1500m
200 to 500 ft
< 800m
< 200 ft
Symbols :   Thunderstorms  Fog  Heavy snow  Heavy precipitations  Wind > 20 kt






- Airport Elevation : 13 ft


KFXE - Fort Lauderdale Executive

CURRENT METAR :
  • 280453Z 15006KT 10SM FEW055 BKN070 29/25 A3003 RMK AO2 SLP171 T02940250 403560256

EXPIRED METARs :
  • 280353Z 15005KT 10SM SCT055 30/25 A3002 RMK AO2 SLP168 T03000250
  • 280253Z 14006KT 10SM SCT048 BKN060 BKN080 31/24 A3002 RMK AO2 SLP166 T03060244 53014
  • 280153Z AUTO 15006KT 10SM FEW065 31/23 A2999 RMK AO2 SLP159 T03060233
  • 280053Z AUTO 15006KT 10SM FEW065 31/23 A2998 RMK AO2 SLP154 T03060233

TAF KFXE
Valid from the 28 at 03:00 until the 29 at 00:00 UTC


280246Z 2803/2824 VRB05KT P6SM SCT050 SCT250
FM280900 VRB04KT P6SM VCSH FEW030 SCT050 BKN100
FM281400 24006KT P6SM FEW030 SCT050
FM281800 14010KT P6SM VCTS SCT025CB BKN040
KZMA FIR / North America



MET'MAP, your aeronautical weather chart ! - Copyright ORBIFLY December 2007 - Disclaimer

ORBIFLY MET'MAP TEAM :

Programming & Development : Alexandra Zaïnal
Original concept : Baudouin d'Aumeries
Technical & hardware support : Manuel Goepfert
Assistance : Marc-Olivier Méhu




SOURCES & CREDITS :

   NOAA       Earth
Advisory